createdAt,value
2022-11-20T00:01:22.429Z,0.20
2022-11-20T00:03:49.407Z,0.11
2022-11-20T00:06:18.382Z,0.06
2022-11-20T00:08:45.741Z,0.11
2022-11-20T00:11:22.835Z,0.00
2022-11-20T00:13:51.568Z,0.13
2022-11-20T00:16:20.279Z,0.08
2022-11-20T00:18:47.201Z,0.06
2022-11-20T00:21:14.987Z,0.18
2022-11-20T00:23:42.369Z,0.13
2022-11-20T00:26:11.817Z,0.03
2022-11-20T00:28:38.309Z,0.06
2022-11-20T00:31:13.507Z,0.20
2022-11-20T00:33:39.884Z,0.21
2022-11-20T00:36:09.292Z,0.20
2022-11-20T00:38:36.017Z,0.17
2022-11-20T00:41:06.292Z,0.14
2022-11-20T00:43:32.831Z,0.18
2022-11-20T00:45:59.561Z,0.22
2022-11-20T00:48:26.314Z,0.17
2022-11-20T00:50:53.138Z,0.18
2022-11-20T00:53:19.550Z,0.19
2022-11-20T00:56:06.116Z,0.13
2022-11-20T00:58:38.382Z,0.13
2022-11-20T01:01:25.887Z,0.19
2022-11-20T01:03:54.430Z,0.15
2022-11-20T01:06:23.812Z,0.18
2022-11-20T01:08:54.393Z,0.25
2022-11-20T01:11:24.368Z,0.09
2022-11-20T01:13:52.162Z,0.03
2022-11-20T01:16:18.474Z,0.19
2022-11-20T01:18:47.176Z,0.20
2022-11-20T01:21:19.714Z,0.10
2022-11-20T01:23:47.259Z,0.17
2022-11-20T01:26:16.061Z,0.18
2022-11-20T01:28:43.281Z,0.24
2022-11-20T01:31:14.307Z,0.22
2022-11-20T01:33:42.072Z,0.24
2022-11-20T01:36:10.232Z,0.19
2022-11-20T01:38:36.675Z,0.27
2022-11-20T01:41:03.758Z,0.19
2022-11-20T01:43:30.301Z,0.25
2022-11-20T01:46:01.434Z,0.28
2022-11-20T01:48:34.676Z,0.16
2022-11-20T01:51:03.502Z,0.27
2022-11-20T01:53:34.259Z,0.28
2022-11-20T01:56:04.295Z,0.24
2022-11-20T01:58:36.504Z,0.16
2022-11-20T02:01:04.420Z,0.25
2022-11-20T02:03:31.665Z,0.17
2022-11-20T02:06:10.902Z,0.27
2022-11-20T02:08:38.497Z,0.26
2022-11-20T02:11:05.241Z,0.30
2022-11-20T02:13:46.613Z,0.25
2022-11-20T02:16:20.290Z,0.21
2022-11-20T02:18:47.628Z,0.32
2022-11-20T02:21:29.307Z,0.20
2022-11-20T02:24:08.699Z,0.17
2022-11-20T02:26:41.263Z,0.21
2022-11-20T02:29:07.650Z,0.14
2022-11-20T02:31:43.464Z,0.29
2022-11-20T02:34:10.341Z,0.25
2022-11-20T02:36:39.873Z,0.20
2022-11-20T02:39:07.031Z,0.28
2022-11-20T02:41:35.387Z,0.35
2022-11-20T02:44:02.486Z,0.30
2022-11-20T02:46:29.287Z,0.25
2022-11-20T02:48:55.894Z,0.37
2022-11-20T02:51:22.756Z,0.24
2022-11-20T02:53:49.107Z,0.21
2022-11-20T02:56:16.354Z,0.24
2022-11-20T02:58:42.793Z,0.45
2022-11-20T03:01:09.410Z,0.37
2022-11-20T03:03:35.869Z,0.33
2022-11-20T03:06:02.484Z,0.29
2022-11-20T03:08:29.279Z,0.32
2022-11-20T03:10:55.639Z,0.28
2022-11-20T03:13:21.994Z,0.39
2022-11-20T03:15:48.333Z,0.35
2022-11-20T03:18:15.671Z,0.39
2022-11-20T03:20:42.018Z,0.42
2022-11-20T03:23:08.382Z,0.46
2022-11-20T03:25:34.746Z,0.44
2022-11-20T03:28:01.108Z,0.27
2022-11-20T03:30:30.501Z,0.33
2022-11-20T03:32:57.348Z,0.45
2022-11-20T03:35:23.766Z,0.39
2022-11-20T03:37:50.139Z,0.39
2022-11-20T03:40:16.660Z,0.33
2022-11-20T03:42:45.925Z,0.41
2022-11-20T03:45:17.555Z,0.43
2022-11-20T03:47:44.812Z,0.43
2022-11-20T03:50:15.983Z,0.40
2022-11-20T03:52:42.931Z,0.29
2022-11-20T03:55:09.466Z,0.43
2022-11-20T03:57:35.882Z,0.35
2022-11-20T04:00:02.812Z,0.39
2022-11-20T04:02:29.149Z,0.37
2022-11-20T04:04:55.526Z,0.37
2022-11-20T04:07:22.035Z,0.39
2022-11-20T04:09:49.123Z,0.30
2022-11-20T04:12:15.482Z,0.33
2022-11-20T04:14:41.852Z,0.39
2022-11-20T04:17:08.211Z,0.49
2022-11-20T04:19:34.573Z,0.51
2022-11-20T04:22:00.943Z,0.40
2022-11-20T04:24:27.592Z,0.48
2022-11-20T04:26:54.019Z,0.50
2022-11-20T04:29:20.755Z,0.49
2022-11-20T04:31:47.368Z,0.42
2022-11-20T04:34:13.892Z,0.45
2022-11-20T04:36:40.429Z,0.50
2022-11-20T04:39:07.495Z,0.57
2022-11-20T04:41:36.142Z,0.58
2022-11-20T04:44:04.636Z,0.46
2022-11-20T04:46:34.285Z,0.52
2022-11-20T04:49:00.764Z,0.52
2022-11-20T04:51:28.066Z,0.42
2022-11-20T04:53:54.791Z,0.49
2022-11-20T04:56:21.199Z,0.50
2022-11-20T04:58:47.536Z,0.44
2022-11-20T05:01:19.576Z,0.46
2022-11-20T05:03:46.110Z,0.46
2022-11-20T05:06:15.356Z,0.46
2022-11-20T05:08:42.141Z,0.45
2022-11-20T05:11:14.528Z,0.44
2022-11-20T05:13:41.425Z,0.56
2022-11-20T05:16:16.776Z,0.50
2022-11-20T05:18:43.784Z,0.37
2022-11-20T05:21:11.773Z,0.44
2022-11-20T05:23:38.791Z,0.34
2022-11-20T05:26:07.190Z,0.46
2022-11-20T05:28:34.498Z,0.39
2022-11-20T05:31:07.465Z,0.50
2022-11-20T05:33:35.270Z,0.64
2022-11-20T05:36:02.784Z,0.56
2022-11-20T05:38:29.147Z,0.63
2022-11-20T05:40:55.538Z,0.60
2022-11-20T05:43:22.062Z,0.53
2022-11-20T05:45:55.258Z,0.58
2022-11-20T05:48:22.030Z,0.44
2022-11-20T05:50:49.129Z,0.47
2022-11-20T05:53:15.504Z,0.53
2022-11-20T05:55:41.846Z,0.51
2022-11-20T05:58:08.236Z,0.47
2022-11-20T06:00:34.631Z,0.42
2022-11-20T06:03:01.013Z,0.41
2022-11-20T06:05:27.435Z,0.44
2022-11-20T06:07:53.792Z,0.41
2022-11-20T06:10:20.136Z,0.44
2022-11-20T06:12:46.461Z,0.33
2022-11-20T06:15:12.806Z,0.26
2022-11-20T06:17:39.157Z,0.33
2022-11-20T06:20:06.089Z,0.24
2022-11-20T06:22:33.447Z,0.26
2022-11-20T06:24:59.802Z,0.30
2022-11-20T06:27:26.143Z,0.25
2022-11-20T06:29:52.486Z,0.24
2022-11-20T06:32:18.867Z,0.23
2022-11-20T06:34:45.449Z,0.30
2022-11-20T06:37:11.831Z,0.25
2022-11-20T06:39:38.210Z,0.29
2022-11-20T06:42:04.593Z,0.30
2022-11-20T06:44:31.006Z,0.34
2022-11-20T06:46:57.389Z,0.34
2022-11-20T06:49:24.031Z,0.35
2022-11-20T06:51:50.708Z,0.38
2022-11-20T06:54:17.059Z,0.38
2022-11-20T06:56:43.416Z,0.37
2022-11-20T06:59:09.829Z,0.43
2022-11-20T07:01:36.255Z,0.62
2022-11-20T07:04:03.891Z,0.76
2022-11-20T07:06:30.350Z,0.79
2022-11-20T07:08:56.684Z,0.85
2022-11-20T07:11:23.335Z,0.92
2022-11-20T07:13:50.412Z,0.97
2022-11-20T07:16:17.275Z,0.92
2022-11-20T07:18:48.814Z,0.90
2022-11-20T07:21:17.047Z,0.83
2022-11-20T07:23:43.390Z,0.90
2022-11-20T07:26:11.850Z,0.95
2022-11-20T07:28:39.148Z,1.11
2022-11-20T07:31:07.547Z,1.08
2022-11-20T07:33:33.904Z,1.19
2022-11-20T07:36:01.023Z,1.16
2022-11-20T07:38:27.403Z,1.20
2022-11-20T07:40:58.535Z,1.16
2022-11-20T07:43:26.090Z,1.18
2022-11-20T07:45:52.450Z,1.31
2022-11-20T07:48:18.805Z,1.27
2022-11-20T07:50:45.158Z,1.25
2022-11-20T07:53:11.561Z,1.16
2022-11-20T07:55:37.892Z,1.11
2022-11-20T07:58:04.263Z,1.15
2022-11-20T08:00:30.734Z,1.20
2022-11-20T08:02:57.195Z,1.50
2022-11-20T08:05:24.606Z,1.50
2022-11-20T08:07:50.976Z,1.39
2022-11-20T08:10:17.845Z,1.45
2022-11-20T08:13:07.629Z,1.46
2022-11-20T08:15:34.594Z,1.47
2022-11-20T08:20:59.212Z,1.55
2022-11-20T08:23:25.631Z,1.51
2022-11-20T08:25:52.301Z,1.61
2022-11-20T08:28:21.801Z,1.57
2022-11-20T08:30:49.746Z,1.57
2022-11-20T08:33:16.261Z,1.65
2022-11-20T08:35:43.801Z,1.55
2022-11-20T08:38:10.642Z,1.58
2022-11-20T08:40:37.010Z,1.57
2022-11-20T08:43:03.366Z,1.57
2022-11-20T08:45:34.269Z,1.55
2022-11-20T08:48:02.488Z,1.58
2022-11-20T08:50:28.890Z,1.63
2022-11-20T08:52:55.232Z,1.63
2022-11-20T08:55:21.563Z,1.63
2022-11-20T08:57:50.854Z,1.68
2022-11-20T09:00:17.833Z,1.67
2022-11-20T09:02:44.211Z,1.72
2022-11-20T09:05:10.585Z,1.85
2022-11-20T09:07:36.981Z,1.89
2022-11-20T09:10:25.589Z,1.77
2022-11-20T09:12:52.511Z,1.78
2022-11-20T09:15:19.692Z,1.89
2022-11-20T09:17:56.740Z,1.82
2022-11-20T09:20:23.250Z,1.73
2022-11-20T09:22:49.605Z,1.85
2022-11-20T09:25:16.017Z,1.75
2022-11-20T09:27:44.557Z,1.77
2022-11-20T09:30:11.449Z,1.80
2022-11-20T09:32:39.946Z,1.88
2022-11-20T09:35:06.607Z,1.95
2022-11-20T09:37:33.142Z,1.96
2022-11-20T09:39:59.490Z,2.01
2022-11-20T09:42:39.699Z,2.13
2022-11-20T09:45:22.611Z,2.15
2022-11-20T09:48:11.610Z,2.04
2022-11-20T09:50:58.906Z,2.15
2022-11-20T09:53:56.626Z,2.22
2022-11-20T09:56:24.117Z,2.09
2022-11-20T09:58:53.241Z,2.18
2022-11-20T10:01:22.611Z,2.28
2022-11-20T10:04:01.741Z,2.23
2022-11-20T10:06:40.888Z,2.19
2022-11-20T10:09:22.602Z,2.33
2022-11-20T10:12:16.338Z,2.40
2022-11-20T10:14:54.605Z,2.35
2022-11-20T10:17:51.529Z,2.33
2022-11-20T10:20:44.155Z,2.40
2022-11-20T10:23:34.045Z,2.47
2022-11-20T10:26:12.307Z,2.50
2022-11-20T10:29:16.176Z,2.56
2022-11-20T10:31:46.834Z,2.46
2022-11-20T10:34:23.348Z,2.55
2022-11-20T10:36:59.713Z,2.55
2022-11-20T10:39:43.243Z,2.54
2022-11-20T10:42:18.477Z,2.57
2022-11-20T10:45:06.368Z,2.69
2022-11-20T10:47:34.165Z,2.75
2022-11-20T10:50:06.870Z,2.75
2022-11-20T10:52:51.835Z,2.78
2022-11-20T10:55:56.783Z,2.81
2022-11-20T10:58:53.696Z,2.77
2022-11-20T11:01:24.708Z,2.80
2022-11-20T11:03:53.293Z,2.87
2022-11-20T11:06:28.857Z,2.93
2022-11-20T11:08:59.279Z,2.99
2022-11-20T11:11:29.994Z,3.03
2022-11-20T11:14:12.624Z,3.08
2022-11-20T11:16:56.947Z,3.18
2022-11-20T11:19:24.263Z,3.14
2022-11-20T11:21:57.961Z,3.27
2022-11-20T11:24:43.031Z,3.32
2022-11-20T11:27:18.010Z,3.29
2022-11-20T11:29:45.867Z,3.36
2022-11-20T11:32:15.529Z,3.27
2022-11-20T11:34:42.300Z,3.34
2022-11-20T11:37:18.457Z,3.35
2022-11-20T11:39:49.388Z,3.38
2022-11-20T11:42:21.746Z,3.57
2022-11-20T11:45:07.290Z,3.56
2022-11-20T11:47:37.523Z,3.59
2022-11-20T11:50:17.627Z,3.72
2022-11-20T11:52:47.139Z,3.79
2022-11-20T11:55:41.035Z,3.76
2022-11-20T11:58:25.363Z,3.86
2022-11-20T12:00:58.369Z,3.90
2022-11-20T12:03:38.102Z,4.03
2022-11-20T12:06:15.221Z,3.99
2022-11-20T12:08:44.579Z,4.06
2022-11-20T12:11:20.852Z,4.17
2022-11-20T12:14:12.342Z,4.02
2022-11-20T12:16:40.111Z,4.01
2022-11-20T12:19:13.103Z,4.00
2022-11-20T12:21:51.073Z,4.01
2022-11-20T12:24:47.544Z,4.05
2022-11-20T12:27:41.971Z,4.12
2022-11-20T12:30:16.576Z,4.03
2022-11-20T12:33:01.107Z,4.14
2022-11-20T12:36:15.595Z,4.23
2022-11-20T12:39:00.442Z,4.26
2022-11-20T12:42:07.102Z,4.31
2022-11-20T12:45:12.029Z,4.38
2022-11-20T12:48:05.531Z,4.41
2022-11-20T12:51:13.330Z,4.47
2022-11-20T12:54:04.715Z,4.59
2022-11-20T12:56:37.180Z,4.70
2022-11-20T12:59:25.081Z,4.82
2022-11-20T13:02:10.137Z,4.88
2022-11-20T13:04:36.425Z,5.02
2022-11-20T13:07:06.630Z,5.02
2022-11-20T13:09:34.669Z,5.11
2022-11-20T13:12:03.936Z,5.16
2022-11-20T13:14:40.716Z,5.16
2022-11-20T13:17:31.802Z,5.30
2022-11-20T13:20:01.833Z,5.40
2022-11-20T13:22:30.780Z,5.36
2022-11-20T13:24:57.243Z,5.27
2022-11-20T13:27:24.760Z,5.25
2022-11-20T13:30:15.166Z,5.22
2022-11-20T13:32:53.674Z,5.32
2022-11-20T13:35:35.377Z,5.31
2022-11-20T13:38:13.144Z,5.17
2022-11-20T13:40:56.081Z,5.04
2022-11-20T13:43:26.971Z,5.10
2022-11-20T13:46:11.425Z,5.06
2022-11-20T13:48:44.394Z,5.01
2022-11-20T13:51:13.823Z,5.07
2022-11-20T13:53:57.872Z,5.04
2022-11-20T13:56:48.801Z,5.09
2022-11-20T13:59:32.482Z,5.12
2022-11-20T14:01:59.241Z,5.10
2022-11-20T14:04:36.400Z,5.16
2022-11-20T14:07:06.469Z,5.00
2022-11-20T14:09:35.124Z,4.88
2022-11-20T14:12:03.804Z,4.64
2022-11-20T14:14:32.041Z,4.51
2022-11-20T14:17:29.541Z,4.54
2022-11-20T14:20:00.114Z,4.36
2022-11-20T14:22:27.504Z,4.40
2022-11-20T14:25:17.355Z,4.40
2022-11-20T14:27:48.748Z,4.36
2022-11-20T14:30:17.773Z,4.50
2022-11-20T14:32:46.185Z,4.49
2022-11-20T14:35:28.500Z,4.47
2022-11-20T14:37:56.053Z,4.50
2022-11-20T14:40:23.762Z,4.42
2022-11-20T14:42:50.186Z,4.25
2022-11-20T14:45:17.354Z,4.26
2022-11-20T14:47:44.327Z,4.23
2022-11-20T14:50:20.084Z,4.19
2022-11-20T14:52:57.929Z,4.15
2022-11-20T14:55:28.430Z,4.17
2022-11-20T14:58:06.306Z,4.15
2022-11-20T15:00:35.238Z,4.09
2022-11-20T15:03:01.601Z,4.09
2022-11-20T15:05:47.241Z,4.02
2022-11-20T15:08:14.630Z,4.08
2022-11-20T15:10:48.732Z,4.04
2022-11-20T15:13:23.812Z,4.13
2022-11-20T15:15:52.876Z,4.15
2022-11-20T15:18:31.949Z,4.24
2022-11-20T15:21:02.141Z,4.19
2022-11-20T15:23:29.627Z,4.21
2022-11-20T15:25:56.805Z,4.21
2022-11-20T15:28:30.204Z,4.21
2022-11-20T15:30:59.591Z,4.12
2022-11-20T15:33:26.062Z,4.15
2022-11-20T15:35:52.435Z,4.12
2022-11-20T15:38:18.788Z,4.04
2022-11-20T15:40:45.180Z,4.06
2022-11-20T15:43:13.742Z,4.01
2022-11-20T15:45:46.473Z,4.05
2022-11-20T15:48:20.001Z,4.01
2022-11-20T15:51:00.499Z,3.95
2022-11-20T15:53:27.037Z,4.00
2022-11-20T15:55:53.848Z,4.00
2022-11-20T15:58:20.332Z,3.99
2022-11-20T16:00:46.918Z,4.07
2022-11-20T16:03:14.549Z,4.01
2022-11-20T16:05:41.053Z,4.06
2022-11-20T16:08:11.550Z,4.13
2022-11-20T16:10:38.441Z,4.19
2022-11-20T16:13:23.287Z,4.27
2022-11-20T16:15:58.458Z,4.31
2022-11-20T16:18:26.048Z,4.52
2022-11-20T16:20:54.308Z,4.56
2022-11-20T16:23:21.639Z,4.42
2022-11-20T16:25:48.253Z,4.46
2022-11-20T16:28:18.838Z,4.41
2022-11-20T16:30:46.135Z,4.26
2022-11-20T16:33:15.066Z,4.26
2022-11-20T16:35:41.850Z,4.21
2022-11-20T16:38:08.250Z,4.25
2022-11-20T16:40:35.211Z,4.17
2022-11-20T16:43:11.979Z,4.14
2022-11-20T16:45:43.201Z,4.18
2022-11-20T16:48:13.087Z,4.12
2022-11-20T16:50:54.299Z,4.18
2022-11-20T16:53:22.128Z,4.22
2022-11-20T16:55:48.794Z,4.22
2022-11-20T16:58:15.474Z,4.22
2022-11-20T17:00:46.889Z,4.21
2022-11-20T17:03:17.724Z,4.15
2022-11-20T17:05:44.142Z,4.16
2022-11-20T17:08:10.505Z,4.18
2022-11-20T17:10:36.846Z,4.07
2022-11-20T17:13:03.227Z,4.17
2022-11-20T17:15:29.595Z,4.12
2022-11-20T17:17:55.946Z,4.13
2022-11-20T17:20:22.326Z,4.14
2022-11-20T17:22:48.723Z,4.05
2022-11-20T17:25:15.143Z,4.02
2022-11-20T17:27:41.518Z,4.10
2022-11-20T17:30:08.425Z,4.02
2022-11-20T17:32:34.794Z,4.03
2022-11-20T17:35:01.593Z,3.97
2022-11-20T17:37:27.943Z,3.91
2022-11-20T17:39:54.375Z,3.83
2022-11-20T17:42:26.647Z,3.83
2022-11-20T17:44:53.043Z,3.86
2022-11-20T17:47:19.393Z,3.83
2022-11-20T17:49:46.017Z,3.87
2022-11-20T17:52:12.404Z,3.89
2022-11-20T17:54:38.743Z,3.86
2022-11-20T17:57:24.906Z,3.85
2022-11-20T17:59:51.255Z,3.91
2022-11-20T18:02:17.619Z,3.97
2022-11-20T18:04:44.864Z,4.00
2022-11-20T18:07:11.273Z,4.07
2022-11-20T18:09:37.689Z,3.97
2022-11-20T18:12:04.320Z,3.96
2022-11-20T18:14:36.161Z,4.01
2022-11-20T18:17:12.033Z,4.11
2022-11-20T18:19:48.010Z,4.05
2022-11-20T18:22:22.735Z,3.98
2022-11-20T18:24:49.434Z,4.12
2022-11-20T18:27:19.373Z,4.05
2022-11-20T18:29:47.952Z,4.09
2022-11-20T18:32:14.725Z,4.04
2022-11-20T18:34:41.069Z,4.02
2022-11-20T18:37:09.679Z,4.03
2022-11-20T18:39:36.587Z,3.99
2022-11-20T18:42:21.731Z,3.89
2022-11-20T18:44:51.249Z,3.90
2022-11-20T18:47:19.120Z,4.03
2022-11-20T18:49:52.531Z,3.97
2022-11-20T18:52:27.801Z,3.94
2022-11-20T18:54:54.935Z,3.93
2022-11-20T18:57:24.233Z,3.95
2022-11-20T18:59:51.170Z,3.86
2022-11-20T19:02:20.059Z,3.82
2022-11-20T19:04:46.902Z,3.86
2022-11-20T19:07:14.064Z,3.89
2022-11-20T19:09:47.963Z,3.85
2022-11-20T19:12:14.852Z,3.91
2022-11-20T19:14:41.291Z,3.86
2022-11-20T19:17:08.767Z,3.87
2022-11-20T19:19:35.394Z,3.87
2022-11-20T19:22:02.055Z,3.80
2022-11-20T19:24:28.792Z,3.77
2022-11-20T19:26:56.162Z,3.87
2022-11-20T19:29:24.839Z,3.92
2022-11-20T19:31:51.687Z,3.83
2022-11-20T19:34:18.169Z,3.80
2022-11-20T19:36:45.063Z,3.88
2022-11-20T19:39:12.163Z,3.89
2022-11-20T19:41:40.426Z,3.92
2022-11-20T19:44:12.613Z,3.77
2022-11-20T19:46:40.147Z,3.83
2022-11-20T19:49:10.097Z,3.89
2022-11-20T19:51:38.870Z,3.92
2022-11-20T19:54:06.281Z,3.98
2022-11-20T19:56:33.963Z,3.93
2022-11-20T19:59:00.565Z,3.88
2022-11-20T20:01:29.717Z,3.84
2022-11-20T20:04:01.211Z,3.94
2022-11-20T20:06:28.440Z,3.92
2022-11-20T20:09:07.105Z,3.93
2022-11-20T20:11:34.838Z,3.94
2022-11-20T20:14:09.928Z,3.84
2022-11-20T20:16:36.630Z,3.81
2022-11-20T20:19:04.654Z,3.75
2022-11-20T20:21:32.991Z,3.74
2022-11-20T20:24:00.320Z,3.76
2022-11-20T20:26:30.235Z,3.68
2022-11-20T20:28:56.806Z,3.72
2022-11-20T20:31:25.311Z,3.70
2022-11-20T20:33:51.750Z,3.58
2022-11-20T20:36:20.031Z,3.63
2022-11-20T20:38:47.087Z,3.62
2022-11-20T20:41:19.684Z,3.68
2022-11-20T20:44:05.042Z,3.72
2022-11-20T20:46:31.400Z,3.67
2022-11-20T20:48:57.808Z,3.71
2022-11-20T20:51:24.370Z,3.81
2022-11-20T20:53:50.777Z,3.75
2022-11-20T20:56:18.072Z,3.76
2022-11-20T20:58:45.019Z,3.86
2022-11-20T21:01:14.361Z,3.88
2022-11-20T21:03:40.868Z,3.77
2022-11-20T21:06:09.755Z,4.00
2022-11-20T21:08:40.143Z,3.92
2022-11-20T21:11:12.863Z,3.88
2022-11-20T21:13:42.644Z,3.82
2022-11-20T21:16:09.925Z,3.88
2022-11-20T21:18:36.416Z,3.78
2022-11-20T21:21:26.655Z,3.86
2022-11-20T21:23:53.537Z,3.99
2022-11-20T21:26:20.470Z,3.92
2022-11-20T21:28:46.903Z,4.09
2022-11-20T21:31:29.817Z,4.15
2022-11-20T21:33:56.829Z,4.16
2022-11-20T21:36:25.753Z,4.25
2022-11-20T21:38:56.333Z,4.14
2022-11-20T21:41:25.141Z,4.22
2022-11-20T21:44:23.728Z,4.34
2022-11-20T21:46:41.319Z,4.27
2022-11-20T21:49:07.801Z,4.30
2022-11-20T21:51:34.254Z,4.21
2022-11-20T21:54:00.692Z,4.39
2022-11-20T21:56:27.250Z,4.34
2022-11-20T21:58:54.776Z,4.22
2022-11-20T22:01:29.780Z,4.18
2022-11-20T22:04:01.158Z,4.15
2022-11-20T22:06:34.807Z,4.19
2022-11-20T22:09:02.691Z,4.18
2022-11-20T22:11:29.325Z,4.11
2022-11-20T22:14:14.059Z,4.09
2022-11-20T22:16:40.540Z,4.07
2022-11-20T22:19:07.478Z,4.10
2022-11-20T22:21:34.612Z,4.06
2022-11-20T22:24:01.417Z,3.88
2022-11-20T22:26:31.714Z,3.88
2022-11-20T22:29:00.678Z,3.83
2022-11-20T22:31:29.329Z,3.83
2022-11-20T22:33:57.257Z,3.81
2022-11-20T22:36:25.827Z,3.69
2022-11-20T22:38:52.390Z,3.71
2022-11-20T22:41:21.441Z,3.76
2022-11-20T22:43:48.479Z,3.81
2022-11-20T22:46:16.996Z,3.76
2022-11-20T22:48:50.349Z,3.68
2022-11-20T22:51:18.654Z,3.72
2022-11-20T22:53:44.998Z,3.76
2022-11-20T22:56:12.525Z,3.75
2022-11-20T22:58:41.416Z,3.91
2022-11-20T23:01:17.061Z,3.80
2022-11-20T23:03:46.059Z,3.83
2022-11-20T23:06:13.090Z,3.78
2022-11-20T23:08:41.444Z,3.66
2022-11-20T23:11:11.368Z,3.70
2022-11-20T23:13:37.852Z,3.66
2022-11-20T23:16:13.706Z,3.54
2022-11-20T23:18:40.812Z,3.61
2022-11-20T23:21:09.577Z,3.52
2022-11-20T23:23:36.573Z,3.49
2022-11-20T23:26:13.603Z,3.36
2022-11-20T23:28:41.307Z,3.50
2022-11-20T23:31:08.962Z,3.47
2022-11-20T23:33:36.903Z,3.43
2022-11-20T23:36:04.049Z,3.36
2022-11-20T23:38:30.400Z,3.37
2022-11-20T23:40:56.780Z,3.35
2022-11-20T23:43:23.171Z,3.33
2022-11-20T23:45:52.653Z,3.38
2022-11-20T23:48:20.416Z,3.29
2022-11-20T23:50:47.534Z,3.32
2022-11-20T23:53:14.611Z,3.34
2022-11-20T23:55:45.935Z,3.32
2022-11-20T23:58:13.209Z,3.24
